sensor_id;sensor_type;location;lat;lon;timestamp;P1;durP1;ratioP1;P2;durP2;ratioP2
35128;SDS011;21301;43.626;10.580;2023-09-07T00:00:20;5.13;;;2.92;;
35128;SDS011;21301;43.626;10.580;2023-09-07T00:02:46;6.50;;;3.22;;
35128;SDS011;21301;43.626;10.580;2023-09-07T00:05:11;5.93;;;2.90;;
35128;SDS011;21301;43.626;10.580;2023-09-07T00:07:38;4.75;;;2.78;;
35128;SDS011;21301;43.626;10.580;2023-09-07T00:10:04;5.38;;;2.65;;
35128;SDS011;21301;43.626;10.580;2023-09-07T00:12:30;6.15;;;2.60;;
35128;SDS011;21301;43.626;10.580;2023-09-07T00:14:57;5.82;;;2.90;;
35128;SDS011;21301;43.626;10.580;2023-09-07T00:17:23;7.10;;;2.90;;
35128;SDS011;21301;43.626;10.580;2023-09-07T00:19:49;5.57;;;2.80;;
35128;SDS011;21301;43.626;10.580;2023-09-07T00:22:16;5.03;;;2.53;;
35128;SDS011;21301;43.626;10.580;2023-09-07T00:24:43;6.55;;;2.97;;
35128;SDS011;21301;43.626;10.580;2023-09-07T00:27:10;5.75;;;3.00;;
35128;SDS011;21301;43.626;10.580;2023-09-07T00:29:37;6.13;;;2.42;;
35128;SDS011;21301;43.626;10.580;2023-09-07T00:32:03;4.60;;;2.70;;
35128;SDS011;21301;43.626;10.580;2023-09-07T00:34:29;7.18;;;3.30;;
35128;SDS011;21301;43.626;10.580;2023-09-07T00:36:56;5.93;;;2.63;;
35128;SDS011;21301;43.626;10.580;2023-09-07T00:39:22;4.43;;;2.85;;
35128;SDS011;21301;43.626;10.580;2023-09-07T00:41:47;4.75;;;2.70;;
35128;SDS011;21301;43.626;10.580;2023-09-07T00:44:14;4.53;;;2.58;;
35128;SDS011;21301;43.626;10.580;2023-09-07T00:46:40;5.57;;;2.60;;
35128;SDS011;21301;43.626;10.580;2023-09-07T00:49:06;4.65;;;2.60;;
35128;SDS011;21301;43.626;10.580;2023-09-07T00:51:32;6.70;;;3.47;;
35128;SDS011;21301;43.626;10.580;2023-09-07T00:53:58;5.50;;;2.83;;
35128;SDS011;21301;43.626;10.580;2023-09-07T00:56:27;6.07;;;2.97;;
35128;SDS011;21301;43.626;10.580;2023-09-07T00:58:53;5.57;;;3.05;;
35128;SDS011;21301;43.626;10.580;2023-09-07T01:01:22;4.78;;;2.95;;
35128;SDS011;21301;43.626;10.580;2023-09-07T01:03:49;7.00;;;3.58;;
35128;SDS011;21301;43.626;10.580;2023-09-07T01:06:18;4.47;;;2.50;;
35128;SDS011;21301;43.626;10.580;2023-09-07T01:08:51;5.60;;;3.17;;
35128;SDS011;21301;43.626;10.580;2023-09-07T01:11:23;5.82;;;2.55;;
35128;SDS011;21301;43.626;10.580;2023-09-07T01:13:50;6.90;;;2.78;;
35128;SDS011;21301;43.626;10.580;2023-09-07T01:16:19;5.45;;;3.17;;
35128;SDS011;21301;43.626;10.580;2023-09-07T01:18:46;5.53;;;2.88;;
35128;SDS011;21301;43.626;10.580;2023-09-07T01:21:13;5.68;;;3.53;;
35128;SDS011;21301;43.626;10.580;2023-09-07T01:23:41;7.75;;;3.20;;
35128;SDS011;21301;43.626;10.580;2023-09-07T01:26:09;5.80;;;2.97;;
35128;SDS011;21301;43.626;10.580;2023-09-07T01:28:35;5.63;;;3.28;;
35128;SDS011;21301;43.626;10.580;2023-09-07T01:31:02;5.32;;;3.13;;
35128;SDS011;21301;43.626;10.580;2023-09-07T01:33:29;6.25;;;3.55;;
35128;SDS011;21301;43.626;10.580;2023-09-07T01:35:55;6.53;;;2.83;;
35128;SDS011;21301;43.626;10.580;2023-09-07T01:38:20;5.75;;;2.78;;
35128;SDS011;21301;43.626;10.580;2023-09-07T01:40:46;7.07;;;3.05;;
35128;SDS011;21301;43.626;10.580;2023-09-07T01:43:12;6.57;;;2.92;;
35128;SDS011;21301;43.626;10.580;2023-09-07T01:45:38;5.40;;;2.83;;
35128;SDS011;21301;43.626;10.580;2023-09-07T01:48:08;8.48;;;3.20;;
35128;SDS011;21301;43.626;10.580;2023-09-07T01:50:36;4.45;;;2.60;;
35128;SDS011;21301;43.626;10.580;2023-09-07T01:53:02;5.93;;;3.08;;
35128;SDS011;21301;43.626;10.580;2023-09-07T01:55:31;5.70;;;3.00;;
35128;SDS011;21301;43.626;10.580;2023-09-07T01:57:58;6.60;;;2.67;;
35128;SDS011;21301;43.626;10.580;2023-09-07T02:00:24;6.20;;;3.00;;
35128;SDS011;21301;43.626;10.580;2023-09-07T02:02:50;9.07;;;2.55;;
35128;SDS011;21301;43.626;10.580;2023-09-07T02:05:16;4.68;;;2.70;;
35128;SDS011;21301;43.626;10.580;2023-09-07T02:07:48;5.93;;;2.80;;
35128;SDS011;21301;43.626;10.580;2023-09-07T02:13:56;4.32;;;2.47;;
35128;SDS011;21301;43.626;10.580;2023-09-07T02:16:21;4.20;;;2.20;;
35128;SDS011;21301;43.626;10.580;2023-09-07T02:18:48;6.40;;;2.92;;
35128;SDS011;21301;43.626;10.580;2023-09-07T02:21:15;4.70;;;2.65;;
35128;SDS011;21301;43.626;10.580;2023-09-07T02:23:42;4.30;;;2.50;;
35128;SDS011;21301;43.626;10.580;2023-09-07T02:26:08;4.80;;;2.95;;
35128;SDS011;21301;43.626;10.580;2023-09-07T02:28:34;5.28;;;2.78;;
35128;SDS011;21301;43.626;10.580;2023-09-07T02:31:03;4.10;;;2.60;;
35128;SDS011;21301;43.626;10.580;2023-09-07T02:33:30;8.10;;;2.83;;
35128;SDS011;21301;43.626;10.580;2023-09-07T02:35:56;4.63;;;2.40;;
35128;SDS011;21301;43.626;10.580;2023-09-07T02:38:23;6.18;;;2.83;;
35128;SDS011;21301;43.626;10.580;2023-09-07T02:40:49;5.78;;;3.00;;
35128;SDS011;21301;43.626;10.580;2023-09-07T02:43:15;6.40;;;2.80;;
35128;SDS011;21301;43.626;10.580;2023-09-07T02:45:41;5.05;;;2.75;;
35128;SDS011;21301;43.626;10.580;2023-09-07T02:48:07;7.00;;;2.97;;
35128;SDS011;21301;43.626;10.580;2023-09-07T02:50:34;5.78;;;2.95;;
35128;SDS011;21301;43.626;10.580;2023-09-07T02:53:00;5.82;;;3.17;;
35128;SDS011;21301;43.626;10.580;2023-09-07T02:55:28;6.07;;;3.30;;
35128;SDS011;21301;43.626;10.580;2023-09-07T02:57:58;8.93;;;3.25;;
35128;SDS011;21301;43.626;10.580;2023-09-07T03:00:25;11.10;;;3.42;;
35128;SDS011;21301;43.626;10.580;2023-09-07T03:02:51;6.88;;;2.80;;
35128;SDS011;21301;43.626;10.580;2023-09-07T03:05:17;5.28;;;2.78;;
35128;SDS011;21301;43.626;10.580;2023-09-07T03:07:44;7.10;;;3.10;;
35128;SDS011;21301;43.626;10.580;2023-09-07T03:10:12;9.38;;;3.20;;
35128;SDS011;21301;43.626;10.580;2023-09-07T03:12:40;6.10;;;3.53;;
35128;SDS011;21301;43.626;10.580;2023-09-07T03:15:06;6.45;;;3.38;;
35128;SDS011;21301;43.626;10.580;2023-09-07T03:17:33;7.32;;;3.05;;
35128;SDS011;21301;43.626;10.580;2023-09-07T03:19:59;5.95;;;3.17;;
35128;SDS011;21301;43.626;10.580;2023-09-07T03:22:25;6.50;;;2.97;;
35128;SDS011;21301;43.626;10.580;2023-09-07T03:24:53;4.65;;;3.22;;
35128;SDS011;21301;43.626;10.580;2023-09-07T03:27:19;8.13;;;2.83;;
35128;SDS011;21301;43.626;10.580;2023-09-07T03:29:49;4.65;;;2.60;;
35128;SDS011;21301;43.626;10.580;2023-09-07T03:32:17;9.77;;;2.88;;
35128;SDS011;21301;43.626;10.580;2023-09-07T03:34:43;6.47;;;3.03;;
35128;SDS011;21301;43.626;10.580;2023-09-07T03:37:09;12.73;;;3.92;;
35128;SDS011;21301;43.626;10.580;2023-09-07T03:39:37;7.20;;;3.67;;
35128;SDS011;21301;43.626;10.580;2023-09-07T03:42:03;5.85;;;3.65;;
35128;SDS011;21301;43.626;10.580;2023-09-07T03:44:29;5.47;;;3.17;;
35128;SDS011;21301;43.626;10.580;2023-09-07T03:46:55;5.43;;;3.15;;
35128;SDS011;21301;43.626;10.580;2023-09-07T03:49:21;13.52;;;3.25;;
35128;SDS011;21301;43.626;10.580;2023-09-07T03:51:47;7.28;;;3.53;;
35128;SDS011;21301;43.626;10.580;2023-09-07T03:54:13;6.53;;;3.17;;
35128;SDS011;21301;43.626;10.580;2023-09-07T03:56:38;5.72;;;2.75;;
35128;SDS011;21301;43.626;10.580;2023-09-07T03:59:06;4.93;;;3.13;;
35128;SDS011;21301;43.626;10.580;2023-09-07T04:01:32;5.55;;;3.22;;
35128;SDS011;21301;43.626;10.580;2023-09-07T04:03:58;8.05;;;3.50;;
35128;SDS011;21301;43.626;10.580;2023-09-07T04:06:24;6.00;;;3.28;;
35128;SDS011;21301;43.626;10.580;2023-09-07T04:08:49;5.07;;;2.83;;
35128;SDS011;21301;43.626;10.580;2023-09-07T04:11:15;6.20;;;3.08;;
35128;SDS011;21301;43.626;10.580;2023-09-07T04:13:41;8.25;;;3.00;;
35128;SDS011;21301;43.626;10.580;2023-09-07T04:16:08;5.43;;;3.35;;
35128;SDS011;21301;43.626;10.580;2023-09-07T04:18:35;5.07;;;2.90;;
35128;SDS011;21301;43.626;10.580;2023-09-07T04:21:04;6.20;;;3.38;;
35128;SDS011;21301;43.626;10.580;2023-09-07T04:23:31;6.15;;;3.20;;
35128;SDS011;21301;43.626;10.580;2023-09-07T04:26:09;5.78;;;3.60;;
35128;SDS011;21301;43.626;10.580;2023-09-07T04:28:36;7.18;;;3.35;;
35128;SDS011;21301;43.626;10.580;2023-09-07T04:31:03;5.30;;;3.00;;
35128;SDS011;21301;43.626;10.580;2023-09-07T04:33:30;4.72;;;2.70;;
35128;SDS011;21301;43.626;10.580;2023-09-07T04:36:06;5.20;;;3.47;;
35128;SDS011;21301;43.626;10.580;2023-09-07T04:38:36;7.25;;;3.78;;
35128;SDS011;21301;43.626;10.580;2023-09-07T04:41:06;6.10;;;3.75;;
35128;SDS011;21301;43.626;10.580;2023-09-07T04:43:36;5.28;;;3.38;;
35128;SDS011;21301;43.626;10.580;2023-09-07T04:46:05;6.45;;;3.75;;
35128;SDS011;21301;43.626;10.580;2023-09-07T04:48:32;7.30;;;3.85;;
35128;SDS011;21301;43.626;10.580;2023-09-07T04:51:03;7.35;;;3.88;;
35128;SDS011;21301;43.626;10.580;2023-09-07T04:53:30;5.72;;;3.17;;
35128;SDS011;21301;43.626;10.580;2023-09-07T04:55:58;7.75;;;3.83;;
35128;SDS011;21301;43.626;10.580;2023-09-07T04:58:25;7.00;;;3.85;;
35128;SDS011;21301;43.626;10.580;2023-09-07T05:00:51;9.88;;;3.70;;
35128;SDS011;21301;43.626;10.580;2023-09-07T05:03:17;11.52;;;3.78;;
35128;SDS011;21301;43.626;10.580;2023-09-07T05:05:43;10.52;;;4.35;;
35128;SDS011;21301;43.626;10.580;2023-09-07T05:08:09;8.38;;;3.28;;
35128;SDS011;21301;43.626;10.580;2023-09-07T05:10:35;8.40;;;3.83;;
35128;SDS011;21301;43.626;10.580;2023-09-07T05:13:02;7.20;;;3.08;;
35128;SDS011;21301;43.626;10.580;2023-09-07T05:15:28;10.52;;;4.20;;
35128;SDS011;21301;43.626;10.580;2023-09-07T05:17:54;7.47;;;3.53;;
35128;SDS011;21301;43.626;10.580;2023-09-07T05:20:21;7.68;;;3.72;;
35128;SDS011;21301;43.626;10.580;2023-09-07T05:22:47;9.90;;;4.07;;
35128;SDS011;21301;43.626;10.580;2023-09-07T05:25:13;9.25;;;4.40;;
35128;SDS011;21301;43.626;10.580;2023-09-07T05:27:39;8.48;;;4.90;;
35128;SDS011;21301;43.626;10.580;2023-09-07T05:30:05;9.60;;;5.03;;
35128;SDS011;21301;43.626;10.580;2023-09-07T05:32:32;16.77;;;4.82;;
35128;SDS011;21301;43.626;10.580;2023-09-07T05:34:58;8.40;;;4.38;;
35128;SDS011;21301;43.626;10.580;2023-09-07T05:37:24;5.68;;;3.40;;
35128;SDS011;21301;43.626;10.580;2023-09-07T05:39:49;6.70;;;3.55;;
35128;SDS011;21301;43.626;10.580;2023-09-07T05:42:15;16.05;;;4.28;;
35128;SDS011;21301;43.626;10.580;2023-09-07T05:44:42;12.25;;;3.92;;
35128;SDS011;21301;43.626;10.580;2023-09-07T05:47:08;12.93;;;4.03;;
35128;SDS011;21301;43.626;10.580;2023-09-07T05:49:33;17.63;;;5.35;;
35128;SDS011;21301;43.626;10.580;2023-09-07T05:51:59;15.20;;;4.18;;
35128;SDS011;21301;43.626;10.580;2023-09-07T05:54:25;22.48;;;3.80;;
35128;SDS011;21301;43.626;10.580;2023-09-07T05:56:51;7.45;;;3.30;;
35128;SDS011;21301;43.626;10.580;2023-09-07T05:59:17;11.82;;;4.13;;
35128;SDS011;21301;43.626;10.580;2023-09-07T06:01:44;8.10;;;4.40;;
35128;SDS011;21301;43.626;10.580;2023-09-07T06:04:10;8.70;;;3.83;;
35128;SDS011;21301;43.626;10.580;2023-09-07T06:06:36;20.05;;;5.32;;
35128;SDS011;21301;43.626;10.580;2023-09-07T06:09:02;16.02;;;8.65;;
35128;SDS011;21301;43.626;10.580;2023-09-07T06:11:29;19.92;;;9.43;;
35128;SDS011;21301;43.626;10.580;2023-09-07T06:13:58;17.67;;;9.60;;
35128;SDS011;21301;43.626;10.580;2023-09-07T06:16:24;15.38;;;6.32;;
35128;SDS011;21301;43.626;10.580;2023-09-07T06:18:50;17.08;;;6.13;;
35128;SDS011;21301;43.626;10.580;2023-09-07T06:21:15;8.40;;;5.07;;
35128;SDS011;21301;43.626;10.580;2023-09-07T06:23:41;10.32;;;3.53;;
35128;SDS011;21301;43.626;10.580;2023-09-07T06:26:08;9.15;;;3.65;;
35128;SDS011;21301;43.626;10.580;2023-09-07T06:28:34;6.75;;;3.08;;
35128;SDS011;21301;43.626;10.580;2023-09-07T06:31:00;5.28;;;2.80;;
35128;SDS011;21301;43.626;10.580;2023-09-07T06:33:26;14.23;;;3.72;;
35128;SDS011;21301;43.626;10.580;2023-09-07T06:35:52;10.50;;;3.92;;
35128;SDS011;21301;43.626;10.580;2023-09-07T06:38:17;17.13;;;5.15;;
35128;SDS011;21301;43.626;10.580;2023-09-07T06:40:49;15.55;;;4.07;;
35128;SDS011;21301;43.626;10.580;2023-09-07T06:43:17;16.67;;;4.72;;
35128;SDS011;21301;43.626;10.580;2023-09-07T06:45:44;15.27;;;4.82;;
35128;SDS011;21301;43.626;10.580;2023-09-07T06:48:09;11.82;;;4.03;;
35128;SDS011;21301;43.626;10.580;2023-09-07T06:50:35;11.57;;;3.65;;
35128;SDS011;21301;43.626;10.580;2023-09-07T06:53:01;9.88;;;3.70;;
35128;SDS011;21301;43.626;10.580;2023-09-07T06:55:28;6.50;;;3.50;;
35128;SDS011;21301;43.626;10.580;2023-09-07T06:57:54;6.95;;;3.42;;
35128;SDS011;21301;43.626;10.580;2023-09-07T07:00:21;9.25;;;3.17;;
35128;SDS011;21301;43.626;10.580;2023-09-07T07:02:47;6.57;;;3.40;;
35128;SDS011;21301;43.626;10.580;2023-09-07T07:05:13;5.82;;;2.95;;
35128;SDS011;21301;43.626;10.580;2023-09-07T07:07:40;5.13;;;2.58;;
35128;SDS011;21301;43.626;10.580;2023-09-07T07:10:06;6.32;;;2.58;;
35128;SDS011;21301;43.626;10.580;2023-09-07T07:12:33;7.30;;;3.20;;
35128;SDS011;21301;43.626;10.580;2023-09-07T07:15:00;7.43;;;2.75;;
35128;SDS011;21301;43.626;10.580;2023-09-07T07:17:27;9.38;;;2.67;;
35128;SDS011;21301;43.626;10.580;2023-09-07T07:19:53;4.40;;;2.33;;
35128;SDS011;21301;43.626;10.580;2023-09-07T07:22:19;3.78;;;2.10;;
35128;SDS011;21301;43.626;10.580;2023-09-07T07:24:45;5.43;;;2.33;;
35128;SDS011;21301;43.626;10.580;2023-09-07T07:27:12;7.35;;;2.28;;
35128;SDS011;21301;43.626;10.580;2023-09-07T07:29:38;5.20;;;2.97;;
35128;SDS011;21301;43.626;10.580;2023-09-07T07:32:04;5.80;;;2.50;;
35128;SDS011;21301;43.626;10.580;2023-09-07T07:34:31;6.70;;;2.67;;
35128;SDS011;21301;43.626;10.580;2023-09-07T07:36:57;6.80;;;3.28;;
35128;SDS011;21301;43.626;10.580;2023-09-07T07:39:23;6.65;;;2.95;;
35128;SDS011;21301;43.626;10.580;2023-09-07T07:41:49;5.07;;;2.70;;
35128;SDS011;21301;43.626;10.580;2023-09-07T07:44:15;7.95;;;2.60;;
35128;SDS011;21301;43.626;10.580;2023-09-07T07:46:41;6.25;;;3.20;;
35128;SDS011;21301;43.626;10.580;2023-09-07T07:49:07;6.65;;;2.70;;
35128;SDS011;21301;43.626;10.580;2023-09-07T07:51:34;6.72;;;3.00;;
35128;SDS011;21301;43.626;10.580;2023-09-07T07:54:00;4.55;;;2.63;;
35128;SDS011;21301;43.626;10.580;2023-09-07T07:56:26;7.05;;;3.20;;
35128;SDS011;21301;43.626;10.580;2023-09-07T07:58:54;6.50;;;3.20;;
35128;SDS011;21301;43.626;10.580;2023-09-07T08:01:20;7.22;;;2.92;;
35128;SDS011;21301;43.626;10.580;2023-09-07T08:03:48;5.00;;;2.90;;
35128;SDS011;21301;43.626;10.580;2023-09-07T08:06:14;5.07;;;2.63;;
35128;SDS011;21301;43.626;10.580;2023-09-07T08:08:40;5.10;;;2.83;;
35128;SDS011;21301;43.626;10.580;2023-09-07T08:11:06;8.73;;;3.20;;
35128;SDS011;21301;43.626;10.580;2023-09-07T08:13:35;6.78;;;3.30;;
35128;SDS011;21301;43.626;10.580;2023-09-07T08:16:01;6.72;;;2.63;;
35128;SDS011;21301;43.626;10.580;2023-09-07T08:18:28;6.70;;;2.30;;
35128;SDS011;21301;43.626;10.580;2023-09-07T08:20:55;6.22;;;3.22;;
35128;SDS011;21301;43.626;10.580;2023-09-07T08:23:21;5.18;;;2.75;;
35128;SDS011;21301;43.626;10.580;2023-09-07T08:25:51;5.95;;;2.17;;
35128;SDS011;21301;43.626;10.580;2023-09-07T08:28:18;5.45;;;2.42;;
35128;SDS011;21301;43.626;10.580;2023-09-07T08:30:46;4.57;;;2.65;;
35128;SDS011;21301;43.626;10.580;2023-09-07T08:33:13;5.40;;;2.65;;
35128;SDS011;21301;43.626;10.580;2023-09-07T08:35:39;5.82;;;1.95;;
35128;SDS011;21301;43.626;10.580;2023-09-07T08:38:12;6.50;;;2.85;;
35128;SDS011;21301;43.626;10.580;2023-09-07T08:40:38;6.28;;;2.40;;
35128;SDS011;21301;43.626;10.580;2023-09-07T08:43:08;4.95;;;2.05;;
35128;SDS011;21301;43.626;10.580;2023-09-07T08:45:37;6.53;;;2.53;;
35128;SDS011;21301;43.626;10.580;2023-09-07T08:48:10;3.88;;;1.90;;
35128;SDS011;21301;43.626;10.580;2023-09-07T08:50:38;5.65;;;2.40;;
35128;SDS011;21301;43.626;10.580;2023-09-07T08:53:07;5.15;;;2.17;;
35128;SDS011;21301;43.626;10.580;2023-09-07T08:55:33;3.25;;;1.90;;
35128;SDS011;21301;43.626;10.580;2023-09-07T08:57:59;4.38;;;1.85;;
35128;SDS011;21301;43.626;10.580;2023-09-07T09:00:25;4.25;;;2.10;;
35128;SDS011;21301;43.626;10.580;2023-09-07T09:02:51;4.82;;;1.60;;
35128;SDS011;21301;43.626;10.580;2023-09-07T09:05:19;3.78;;;1.98;;
35128;SDS011;21301;43.626;10.580;2023-09-07T09:07:45;3.72;;;2.15;;
35128;SDS011;21301;43.626;10.580;2023-09-07T09:10:11;5.13;;;1.80;;
35128;SDS011;21301;43.626;10.580;2023-09-07T09:12:44;4.15;;;2.30;;
35128;SDS011;21301;43.626;10.580;2023-09-07T09:15:12;3.60;;;1.80;;
35128;SDS011;21301;43.626;10.580;2023-09-07T09:17:38;3.67;;;1.98;;
35128;SDS011;21301;43.626;10.580;2023-09-07T09:20:03;6.43;;;1.80;;
35128;SDS011;21301;43.626;10.580;2023-09-07T09:22:35;4.53;;;1.92;;
35128;SDS011;21301;43.626;10.580;2023-09-07T09:25:04;4.25;;;2.00;;
35128;SDS011;21301;43.626;10.580;2023-09-07T09:27:30;4.28;;;2.00;;
35128;SDS011;21301;43.626;10.580;2023-09-07T09:29:56;5.78;;;2.58;;
35128;SDS011;21301;43.626;10.580;2023-09-07T09:32:23;4.38;;;2.40;;
35128;SDS011;21301;43.626;10.580;2023-09-07T09:34:50;4.97;;;2.50;;
35128;SDS011;21301;43.626;10.580;2023-09-07T09:37:16;6.57;;;1.92;;
35128;SDS011;21301;43.626;10.580;2023-09-07T09:39:45;5.25;;;2.60;;
35128;SDS011;21301;43.626;10.580;2023-09-07T09:42:15;3.63;;;1.83;;
35128;SDS011;21301;43.626;10.580;2023-09-07T09:44:42;4.68;;;2.15;;
35128;SDS011;21301;43.626;10.580;2023-09-07T09:47:08;5.50;;;2.00;;
35128;SDS011;21301;43.626;10.580;2023-09-07T09:49:36;5.07;;;2.13;;
35128;SDS011;21301;43.626;10.580;2023-09-07T09:52:03;5.53;;;1.80;;
35128;SDS011;21301;43.626;10.580;2023-09-07T09:54:32;3.70;;;2.00;;
35128;SDS011;21301;43.626;10.580;2023-09-07T09:57:00;4.68;;;2.28;;
35128;SDS011;21301;43.626;10.580;2023-09-07T09:59:26;2.97;;;1.45;;
35128;SDS011;21301;43.626;10.580;2023-09-07T10:01:52;5.20;;;2.30;;
35128;SDS011;21301;43.626;10.580;2023-09-07T10:04:19;3.63;;;1.90;;
35128;SDS011;21301;43.626;10.580;2023-09-07T10:06:55;4.20;;;1.90;;
35128;SDS011;21301;43.626;10.580;2023-09-07T10:09:23;3.72;;;1.60;;
35128;SDS011;21301;43.626;10.580;2023-09-07T10:11:52;4.85;;;2.10;;
35128;SDS011;21301;43.626;10.580;2023-09-07T10:14:19;4.13;;;1.40;;
35128;SDS011;21301;43.626;10.580;2023-09-07T10:16:45;4.50;;;2.10;;
35128;SDS011;21301;43.626;10.580;2023-09-07T10:19:16;3.45;;;1.60;;
35128;SDS011;21301;43.626;10.580;2023-09-07T10:21:42;4.53;;;2.10;;
35128;SDS011;21301;43.626;10.580;2023-09-07T10:24:08;2.90;;;1.77;;
35128;SDS011;21301;43.626;10.580;2023-09-07T10:26:34;4.72;;;1.85;;
35128;SDS011;21301;43.626;10.580;2023-09-07T10:29:00;4.20;;;1.58;;
35128;SDS011;21301;43.626;10.580;2023-09-07T10:31:29;7.78;;;2.20;;
35128;SDS011;21301;43.626;10.580;2023-09-07T10:34:10;3.30;;;1.70;;
35128;SDS011;21301;43.626;10.580;2023-09-07T10:36:37;5.22;;;2.28;;
35128;SDS011;21301;43.626;10.580;2023-09-07T10:39:03;6.03;;;2.30;;
35128;SDS011;21301;43.626;10.580;2023-09-07T10:41:44;3.60;;;1.77;;
35128;SDS011;21301;43.626;10.580;2023-09-07T10:44:11;3.60;;;1.52;;
35128;SDS011;21301;43.626;10.580;2023-09-07T10:46:38;6.20;;;2.33;;
35128;SDS011;21301;43.626;10.580;2023-09-07T10:49:08;2.78;;;1.50;;
35128;SDS011;21301;43.626;10.580;2023-09-07T10:51:40;4.40;;;2.33;;
35128;SDS011;21301;43.626;10.580;2023-09-07T10:54:23;4.05;;;1.98;;
35128;SDS011;21301;43.626;10.580;2023-09-07T10:56:50;5.72;;;1.90;;
35128;SDS011;21301;43.626;10.580;2023-09-07T10:59:16;3.70;;;1.98;;
35128;SDS011;21301;43.626;10.580;2023-09-07T11:01:46;4.00;;;1.67;;
35128;SDS011;21301;43.626;10.580;2023-09-07T11:04:13;3.97;;;1.80;;
35128;SDS011;21301;43.626;10.580;2023-09-07T11:06:40;3.47;;;1.65;;
35128;SDS011;21301;43.626;10.580;2023-09-07T11:09:07;4.68;;;1.70;;
35128;SDS011;21301;43.626;10.580;2023-09-07T11:11:35;4.93;;;2.03;;
35128;SDS011;21301;43.626;10.580;2023-09-07T11:14:05;3.60;;;2.10;;
35128;SDS011;21301;43.626;10.580;2023-09-07T11:16:34;3.58;;;1.70;;
35128;SDS011;21301;43.626;10.580;2023-09-07T11:19:06;4.85;;;2.08;;
35128;SDS011;21301;43.626;10.580;2023-09-07T11:21:34;5.68;;;1.80;;
35128;SDS011;21301;43.626;10.580;2023-09-07T11:24:01;5.13;;;2.00;;
35128;SDS011;21301;43.626;10.580;2023-09-07T11:26:40;3.22;;;1.60;;
35128;SDS011;21301;43.626;10.580;2023-09-07T11:29:08;4.50;;;1.73;;
35128;SDS011;21301;43.626;10.580;2023-09-07T11:31:34;3.80;;;1.90;;
35128;SDS011;21301;43.626;10.580;2023-09-07T11:34:00;3.35;;;1.55;;
35128;SDS011;21301;43.626;10.580;2023-09-07T11:36:26;4.22;;;1.95;;
35128;SDS011;21301;43.626;10.580;2023-09-07T11:38:52;3.65;;;1.60;;
35128;SDS011;21301;43.626;10.580;2023-09-07T11:41:18;5.50;;;1.75;;
35128;SDS011;21301;43.626;10.580;2023-09-07T11:43:44;4.15;;;2.20;;
35128;SDS011;21301;43.626;10.580;2023-09-07T11:46:10;3.75;;;1.90;;
35128;SDS011;21301;43.626;10.580;2023-09-07T11:48:36;4.75;;;2.08;;
35128;SDS011;21301;43.626;10.580;2023-09-07T11:51:02;3.72;;;2.00;;
35128;SDS011;21301;43.626;10.580;2023-09-07T11:53:28;4.20;;;1.77;;
35128;SDS011;21301;43.626;10.580;2023-09-07T11:55:55;4.03;;;1.80;;
35128;SDS011;21301;43.626;10.580;2023-09-07T11:58:21;8.07;;;2.03;;
35128;SDS011;21301;43.626;10.580;2023-09-07T12:00:47;5.20;;;2.08;;
35128;SDS011;21301;43.626;10.580;2023-09-07T12:03:12;4.10;;;2.10;;
35128;SDS011;21301;43.626;10.580;2023-09-07T12:05:38;4.97;;;2.40;;
35128;SDS011;21301;43.626;10.580;2023-09-07T12:08:05;4.93;;;2.03;;
35128;SDS011;21301;43.626;10.580;2023-09-07T12:10:31;3.40;;;1.92;;
35128;SDS011;21301;43.626;10.580;2023-09-07T12:12:56;4.22;;;1.95;;
35128;SDS011;21301;43.626;10.580;2023-09-07T12:15:22;3.50;;;1.63;;
35128;SDS011;21301;43.626;10.580;2023-09-07T12:17:48;3.45;;;1.70;;
35128;SDS011;21301;43.626;10.580;2023-09-07T12:20:19;3.47;;;1.55;;
35128;SDS011;21301;43.626;10.580;2023-09-07T12:22:46;3.97;;;1.70;;
35128;SDS011;21301;43.626;10.580;2023-09-07T12:25:12;3.65;;;2.05;;
35128;SDS011;21301;43.626;10.580;2023-09-07T12:27:38;3.95;;;2.05;;
35128;SDS011;21301;43.626;10.580;2023-09-07T12:30:03;5.93;;;1.73;;
35128;SDS011;21301;43.626;10.580;2023-09-07T12:32:33;3.20;;;1.80;;
35128;SDS011;21301;43.626;10.580;2023-09-07T12:34:59;3.47;;;1.80;;
35128;SDS011;21301;43.626;10.580;2023-09-07T12:37:25;3.55;;;1.75;;
35128;SDS011;21301;43.626;10.580;2023-09-07T12:39:51;5.00;;;2.25;;
35128;SDS011;21301;43.626;10.580;2023-09-07T12:42:17;4.10;;;2.20;;
35128;SDS011;21301;43.626;10.580;2023-09-07T12:44:43;6.25;;;2.05;;
35128;SDS011;21301;43.626;10.580;2023-09-07T12:47:09;3.70;;;1.90;;
35128;SDS011;21301;43.626;10.580;2023-09-07T12:49:35;4.32;;;2.25;;
35128;SDS011;21301;43.626;10.580;2023-09-07T12:52:01;3.42;;;1.70;;
35128;SDS011;21301;43.626;10.580;2023-09-07T12:56:59;3.75;;;2.38;;
35128;SDS011;21301;43.626;10.580;2023-09-07T12:59:25;4.40;;;2.38;;
35128;SDS011;21301;43.626;10.580;2023-09-07T13:01:51;4.97;;;2.10;;
35128;SDS011;21301;43.626;10.580;2023-09-07T13:04:18;6.40;;;2.17;;
35128;SDS011;21301;43.626;10.580;2023-09-07T13:06:44;6.00;;;2.80;;
35128;SDS011;21301;43.626;10.580;2023-09-07T13:09:10;7.28;;;2.55;;
35128;SDS011;21301;43.626;10.580;2023-09-07T13:11:36;5.53;;;2.85;;
35128;SDS011;21301;43.626;10.580;2023-09-07T13:14:02;4.70;;;2.47;;
35128;SDS011;21301;43.626;10.580;2023-09-07T13:16:28;5.05;;;2.30;;
35128;SDS011;21301;43.626;10.580;2023-09-07T13:18:53;11.65;;;2.63;;
35128;SDS011;21301;43.626;10.580;2023-09-07T13:21:19;4.95;;;2.13;;
35128;SDS011;21301;43.626;10.580;2023-09-07T13:23:45;4.35;;;2.30;;
35128;SDS011;21301;43.626;10.580;2023-09-07T13:26:12;4.35;;;2.17;;
35128;SDS011;21301;43.626;10.580;2023-09-07T13:28:37;7.20;;;2.83;;
35128;SDS011;21301;43.626;10.580;2023-09-07T13:31:03;4.32;;;2.67;;
35128;SDS011;21301;43.626;10.580;2023-09-07T13:33:29;7.53;;;2.80;;
35128;SDS011;21301;43.626;10.580;2023-09-07T13:35:55;4.18;;;2.50;;
35128;SDS011;21301;43.626;10.580;2023-09-07T13:38:20;5.55;;;2.30;;
35128;SDS011;21301;43.626;10.580;2023-09-07T13:40:46;4.35;;;2.33;;
35128;SDS011;21301;43.626;10.580;2023-09-07T13:43:12;5.57;;;2.78;;
35128;SDS011;21301;43.626;10.580;2023-09-07T13:45:38;6.38;;;2.35;;
35128;SDS011;21301;43.626;10.580;2023-09-07T13:48:04;5.63;;;2.53;;
35128;SDS011;21301;43.626;10.580;2023-09-07T13:50:30;4.65;;;2.58;;
35128;SDS011;21301;43.626;10.580;2023-09-07T13:52:56;7.63;;;2.92;;
35128;SDS011;21301;43.626;10.580;2023-09-07T13:55:21;4.30;;;2.63;;
35128;SDS011;21301;43.626;10.580;2023-09-07T13:57:48;6.40;;;2.72;;
35128;SDS011;21301;43.626;10.580;2023-09-07T14:00:14;4.75;;;2.90;;
35128;SDS011;21301;43.626;10.580;2023-09-07T14:02:40;6.38;;;2.35;;
35128;SDS011;21301;43.626;10.580;2023-09-07T14:05:06;4.80;;;2.60;;
35128;SDS011;21301;43.626;10.580;2023-09-07T14:07:33;6.18;;;2.83;;
35128;SDS011;21301;43.626;10.580;2023-09-07T14:09:59;5.50;;;2.85;;
35128;SDS011;21301;43.626;10.580;2023-09-07T14:12:26;4.10;;;2.30;;
35128;SDS011;21301;43.626;10.580;2023-09-07T14:14:52;4.13;;;2.60;;
35128;SDS011;21301;43.626;10.580;2023-09-07T14:17:18;5.63;;;2.30;;
35128;SDS011;21301;43.626;10.580;2023-09-07T14:19:43;5.25;;;2.75;;
35128;SDS011;21301;43.626;10.580;2023-09-07T14:22:11;4.38;;;2.58;;
35128;SDS011;21301;43.626;10.580;2023-09-07T14:24:37;5.68;;;2.80;;
35128;SDS011;21301;43.626;10.580;2023-09-07T14:27:03;5.80;;;2.90;;
35128;SDS011;21301;43.626;10.580;2023-09-07T14:29:29;5.43;;;2.67;;
35128;SDS011;21301;43.626;10.580;2023-09-07T14:31:56;5.10;;;2.55;;
35128;SDS011;21301;43.626;10.580;2023-09-07T14:34:22;5.35;;;2.88;;
35128;SDS011;21301;43.626;10.580;2023-09-07T14:36:48;4.53;;;2.40;;